Portland International Airport (KPDX) Information & Weather

WARNING: the data listed below is for informational purposes only and should be confirmed from official sources. Data presented here on this page may be out of date, incomplete or wrong.

Name: Portland International Airport
Identifier: KPDX

Coord: 45.5887N 122.5969W
Var: 16°E

Country: United States
Municipality: PORTLAND, OR
Time Zone: (GMT-08:00) America/Los_Angeles

Station Elevation: 31 ft
Pressure Altitude: 26 ft
Density Altitude: 2761 ft
Freezing Level: 19223 ft

Civil Twilight
Morning: 12:20 UTC  (04:20 local)
Evening: 04:11 UTC  (20:11 local)

Flight Category: VFR (30 days ago)

METAR KPDX 312353Z 33005KT 10SM FEW070 FEW100 FEW250 38/05 A2993= [toggle past 4 hours]

TAF KPDX 012327Z 0200/0224 32010G15KT P6SM SCT150 SCT250 FM020400 32006KT P6SM FEW250 FM020800 VRB03KT P6SM FEW150 SCT250 FM021800 30006KT P6SM SCT150=

Upper Winds

Source   Valid 375 1000 2000 2500 3000 5000 6000 8000 10000 12000 14000 16000 18000 21000 24000 26000 30000 34000 39000 44000 52000 60000
GFS 0200/0203 3209+33 3312+31 3314+28 3414+26 3515+24 3610+21 3007+20 2711+16 2615+12 2417+07 2320+02 2327-04 2330-09 2330-15 2229-21 2226-28 2426-37 2426-48 2331-58 2237-59 2410-60 0002-58

SIGMET/AIRMET

None within 25nm.

PIREP

None within 25nm.

NOTAM

None within 25nm.

Runway Data

Frequencies

Nearby Airports

Nearby Navaids